ETEB 250456Z AUTO 00000KT 9999 SCT120 SCT140 16/15 A2986 RMK AO2 RAB25E29DZB29E31DZB31E31 SLP110 P0000 T01590146 $ ETIK 250456Z AUTO 00000KT 9000 BR FEW150 15/14 A2987 RMK AO2 SLP105 T01520139 EDDE 250520Z 22003KT 110V250 CAVOK 19/16 Q1010 NOSIG EDDF 250520Z 22006KT 6000 SCT003 BKN006 17/16 Q1010 BECMG BKN010 ETIC 250456Z AUTO 00000KT 9999 SCT130 16/16 A2986 RMK AO2 SLP099 T01600158 $ ETIH 250456Z AUTO 00000KT 9999 CLR 16/14 A2988 RMK AO2 SLP104 T01570135 ETSI 250520Z AUTO VRB02KT 7000 // ////// 16/15 Q1012 /// EDDP 250520Z 22007KT CAVOK 21/16 Q1009 NOSIG EDDM 250520Z 24005KT 9999 TSRA FEW010 SCT040CB 16/15 Q1013 RETSRA TEMPO SHRA ETSN 250520Z 00000KT 8000 SHRA FEW010 SCT050TCU BKN100 15/15 Q1011 BLU ETHN 250520Z VRB02KT 9999 FEW050 BKN160 16/16 Q1011 BLU EDDN 250520Z 10003KT 060V120 9999 FEW040 17/15 Q1011 NOSIG EDDS 250520Z 20003KT 160V250 9999 FEW001 BKN030 18/16 Q1011 NOSIG

METAR Messwerte

Klicken Sie auf einen Ort, um die 36h-Historie abzurufen

Ort
m ü. NN
Zeit Temperatur Taupunkt Rel.
Luftfeuchte
Luftdruck:
Altimeter
NN
Station
Wind in Beaufort
(Knoten)
Sichtweite
(Meter)
Wolken
(Meter über Grund)
Wettererscheinung
Ansbach
467
So 25.07. 06:56161594 %1011
1011
956
Windstill>= 10000Wolkig (4300)
Wolkig (3700)
 
Bad Windsheim / Illesheim
325
So 25.07. 06:56151494 %1012
1012
974
Windstill9000Leicht bewölkt (4600)Nebeldunst
Erfurt-Bindersleben
323
So 25.07. 07:20191683 %1010
1009
972
SW 2 (3)
OSO - WSW
>= 10000Nicht signifikant 
Frankfurt
113
So 25.07. 07:20171694 %1010
1010
997
SW 2 (6)6000Stark bewölkt (180)
Wolkig (91)
 
Grafenwöhr
415
So 25.07. 06:561616100 %1011
1011
962
Windstill>= 10000Wolkig (4000) 
Hohenfels
442
So 25.07. 06:56161488 %1012
1012
960
Windstill>= 10000  
Ingolstadt
370
So 25.07. 07:20161594 %1012
1012
968
Uml 1 (2)7000  
Leipzig-Schkeuditz
149
So 25.07. 07:20211673 %1009
1009
991
SW 3 (7)>= 10000Nicht signifikant 
München
447
So 25.07. 07:20161594 %1013
1013
960
WSW 2 (5)>= 10000Wolkig Cb (1200)
Leicht bewölkt (300)
Gewitter mit Regen
Bald möglich: Regen-Schauer
Neuburg/Donau
387
So 25.07. 07:201515100 %1011
1011
965
Windstill8000Stark bewölkt (3000)
Wolkig (1500)
Leicht bewölkt (300)
Regen-Schauer
Niederstetten
473
So 25.07. 07:201616100 %1011
1011
956
Uml 1 (2)>= 10000Stark bewölkt (4900)
Leicht bewölkt (1500)
 
Nürnberg
312
So 25.07. 07:20171588 %1011
1011
974
O 2 (3)
ONO - OSO
>= 10000Leicht bewölkt (1200) 
Stuttgart
419
So 25.07. 07:20181688 %1011
1010
962
SSW 2 (3)
SSO - WSW
>= 10000Stark bewölkt (910)
Leicht bewölkt (30)
 

Altimeter: Einstellung am Altimeter (Höhenmesser), die Höhe 0 muss auf diesen Luftdruckwert zeigen, damit das Gerät die Stationshöhe richtig anzeigt.

NN: Luftdruck reduziert auf "Normal Null", auf Meereshöhe, dieser von der Temperatur abhängige Wert wird bisweilen unkorrekt einfach als "Luftdruck" bezeichnet. Eigentlich nur eine fiktive Größe, die es erlaubt, Stationen auf unterschiedlichen Höhen miteinander zu vergleichen.

Station: Realer Luftdruck an der Station.